createdAt,value
2018-08-03T00:01:25.488Z,20.70
2018-08-03T00:03:54.043Z,20.68
2018-08-03T00:06:22.500Z,20.39
2018-08-03T00:08:51.365Z,20.21
2018-08-03T00:11:19.846Z,20.17
2018-08-03T00:13:49.107Z,20.17
2018-08-03T00:16:17.650Z,20.04
2018-08-03T00:18:46.257Z,20.17
2018-08-03T00:21:15.167Z,20.32
2018-08-03T00:23:44.263Z,20.30
2018-08-03T00:26:14.364Z,20.30
2018-08-03T00:28:43.273Z,20.28
2018-08-03T00:31:11.875Z,20.19
2018-08-03T00:33:41.188Z,20.11
2018-08-03T00:36:10.543Z,20.04
2018-08-03T00:38:39.453Z,20.13
2018-08-03T00:41:08.491Z,20.20
2018-08-03T00:43:37.081Z,19.82
2018-08-03T00:46:05.764Z,19.99
2018-08-03T00:48:34.656Z,19.96
2018-08-03T00:51:03.683Z,19.85
2018-08-03T00:53:32.452Z,20.16
2018-08-03T00:56:01.156Z,19.99
2018-08-03T00:58:29.952Z,20.02
2018-08-03T01:00:58.714Z,20.09
2018-08-03T01:03:27.403Z,20.11
2018-08-03T01:05:56.041Z,20.05
2018-08-03T01:08:24.997Z,19.98
2018-08-03T01:10:54.910Z,19.93
2018-08-03T01:13:24.996Z,19.82
2018-08-03T01:15:54.435Z,19.86
2018-08-03T01:18:23.125Z,19.75
2018-08-03T01:20:52.259Z,19.68
2018-08-03T01:23:21.890Z,19.61
2018-08-03T01:25:50.632Z,19.91
2018-08-03T01:28:19.913Z,19.82
2018-08-03T01:30:48.711Z,19.77
2018-08-03T01:33:17.792Z,19.67
2018-08-03T01:35:46.507Z,19.89
2018-08-03T01:38:15.401Z,19.63
2018-08-03T01:40:44.643Z,19.81
2018-08-03T01:43:13.713Z,19.53
2018-08-03T01:45:42.557Z,19.53
2018-08-03T01:48:11.552Z,19.52
2018-08-03T01:50:40.415Z,19.52
2018-08-03T01:53:09.344Z,19.67
2018-08-03T01:55:38.087Z,19.59
2018-08-03T01:58:07.143Z,19.63
2018-08-03T02:00:36.056Z,19.55
2018-08-03T02:03:04.822Z,19.70
2018-08-03T02:05:33.582Z,19.43
2018-08-03T02:08:02.851Z,19.42
2018-08-03T02:10:31.620Z,19.41
2018-08-03T02:13:00.348Z,19.60
2018-08-03T02:15:29.031Z,19.51
2018-08-03T02:17:57.868Z,19.30
2018-08-03T02:20:26.559Z,19.26
2018-08-03T02:22:55.502Z,19.16
2018-08-03T02:25:24.411Z,19.21
2018-08-03T02:27:54.259Z,19.20
2018-08-03T02:30:23.150Z,19.16
2018-08-03T02:32:51.817Z,19.32
2018-08-03T02:35:20.363Z,19.27
2018-08-03T02:37:49.924Z,19.19
2018-08-03T02:40:19.731Z,19.20
2018-08-03T02:42:48.485Z,19.14
2018-08-03T02:45:17.552Z,19.26
2018-08-03T02:47:47.580Z,19.19
2018-08-03T02:50:16.209Z,19.23
2018-08-03T02:52:45.020Z,19.18
2018-08-03T02:55:13.974Z,19.44
2018-08-03T02:57:42.906Z,19.20
2018-08-03T03:00:12.088Z,18.97
2018-08-03T03:02:43.672Z,18.91
2018-08-03T03:05:12.376Z,18.97
2018-08-03T03:07:42.931Z,18.98
2018-08-03T03:10:11.355Z,18.85
2018-08-03T03:12:39.863Z,18.72
2018-08-03T03:15:09.083Z,18.71
2018-08-03T03:17:37.739Z,18.73
2018-08-03T03:20:07.768Z,18.77
2018-08-03T03:22:36.433Z,18.70
2018-08-03T03:25:12.182Z,18.69
2018-08-03T03:27:43.870Z,18.59
2018-08-03T03:30:12.835Z,18.22
2018-08-03T03:32:42.109Z,18.24
2018-08-03T03:35:10.734Z,18.47
2018-08-03T03:37:39.245Z,18.57
2018-08-03T03:40:07.759Z,18.54
2018-08-03T03:42:36.508Z,18.59
2018-08-03T03:45:05.348Z,18.65
2018-08-03T03:47:34.651Z,18.62
2018-08-03T03:50:07.021Z,18.50
2018-08-03T03:52:36.348Z,18.49
2018-08-03T03:55:12.336Z,18.62
2018-08-03T03:57:45.086Z,18.50
2018-08-03T04:00:16.386Z,18.61
2018-08-03T04:02:45.118Z,18.59
2018-08-03T04:05:15.253Z,18.47
2018-08-03T04:07:43.973Z,18.45
2018-08-03T04:10:14.726Z,18.41
2018-08-03T04:12:43.653Z,18.44
2018-08-03T04:15:12.458Z,18.58
2018-08-03T04:17:45.121Z,18.69
2018-08-03T04:20:16.516Z,18.69
2018-08-03T04:22:45.129Z,18.64
2018-08-03T04:25:14.561Z,18.70
2018-08-03T04:27:43.092Z,18.76
2018-08-03T04:30:11.811Z,18.81
2018-08-03T04:32:40.619Z,18.94
2018-08-03T04:35:09.184Z,18.97
2018-08-03T04:37:38.337Z,19.08
2018-08-03T04:40:06.979Z,19.21
2018-08-03T04:42:36.274Z,19.21
2018-08-03T04:45:05.276Z,19.32
2018-08-03T04:47:33.825Z,19.42
2018-08-03T04:50:03.573Z,19.39
2018-08-03T04:52:32.135Z,19.52
2018-08-03T04:55:00.668Z,19.65
2018-08-03T04:57:29.256Z,19.79
2018-08-03T04:59:57.829Z,19.90
2018-08-03T05:02:26.733Z,20.05
2018-08-03T05:04:55.319Z,20.25
2018-08-03T05:07:23.879Z,20.50
2018-08-03T05:09:52.659Z,20.74
2018-08-03T05:12:22.508Z,20.96
2018-08-03T05:14:52.376Z,21.19
2018-08-03T05:17:21.058Z,21.13
2018-08-03T05:19:53.788Z,21.05
2018-08-03T05:22:23.039Z,21.40
2018-08-03T05:24:51.869Z,21.80
2018-08-03T05:27:20.392Z,21.88
2018-08-03T05:29:50.228Z,22.11
2018-08-03T05:32:19.211Z,22.31
2018-08-03T05:34:47.793Z,22.36
2018-08-03T05:37:16.351Z,22.80
2018-08-03T05:39:45.381Z,22.75
2018-08-03T05:42:15.486Z,23.06
2018-08-03T05:44:44.290Z,23.38
2018-08-03T05:47:14.615Z,24.07
2018-08-03T05:49:44.270Z,24.37
2018-08-03T05:52:15.687Z,24.61
2018-08-03T05:54:44.364Z,24.85
2018-08-03T05:57:15.377Z,24.21
2018-08-03T05:59:45.181Z,23.63
2018-08-03T06:02:15.132Z,24.25
2018-08-03T06:04:44.728Z,23.99
2018-08-03T06:07:13.219Z,23.81
2018-08-03T06:09:41.784Z,24.09
2018-08-03T06:12:11.335Z,24.16
2018-08-03T06:14:40.835Z,25.90
2018-08-03T06:17:10.601Z,26.93
2018-08-03T06:19:40.320Z,27.27
2018-08-03T06:22:09.131Z,27.82
2018-08-03T06:24:37.862Z,27.47
2018-08-03T06:27:07.536Z,27.74
2018-08-03T06:29:38.236Z,27.28
2018-08-03T06:32:10.427Z,27.10
2018-08-03T06:34:40.426Z,26.45
2018-08-03T06:37:09.203Z,27.55
2018-08-03T06:39:39.212Z,26.92
2018-08-03T06:42:11.448Z,26.79
2018-08-03T06:44:41.042Z,26.02
2018-08-03T06:47:10.843Z,26.81
2018-08-03T06:49:42.647Z,26.63
2018-08-03T06:52:13.586Z,26.99
2018-08-03T06:54:44.637Z,26.86
2018-08-03T06:57:13.619Z,27.53
2018-08-03T06:59:43.136Z,27.77
2018-08-03T07:02:13.979Z,26.96
2018-08-03T07:04:44.391Z,28.19
2018-08-03T07:07:14.409Z,27.47
2018-08-03T07:09:45.253Z,28.69
2018-08-03T07:12:15.927Z,27.91
2018-08-03T07:14:46.228Z,27.98
2018-08-03T07:17:15.097Z,28.34
2018-08-03T07:19:45.009Z,29.57
2018-08-03T07:22:14.189Z,29.88
2018-08-03T07:24:43.604Z,28.48
2018-08-03T07:27:12.935Z,29.29
2018-08-03T07:29:41.828Z,29.63
2018-08-03T07:32:13.030Z,29.38
2018-08-03T07:34:41.798Z,29.94
2018-08-03T07:37:11.357Z,30.46
2018-08-03T07:39:39.936Z,31.07
2018-08-03T07:42:09.404Z,31.89
2018-08-03T07:44:40.600Z,32.39
2018-08-03T07:47:11.076Z,32.22
2018-08-03T07:49:40.911Z,32.52
2018-08-03T07:52:11.587Z,32.86
2018-08-03T07:58:09.494Z,31.24
2018-08-03T08:01:36.104Z,31.30
2018-08-03T08:04:05.037Z,32.48
2018-08-03T08:06:33.701Z,33.27
2018-08-03T08:09:04.778Z,32.19
2018-08-03T08:11:33.558Z,33.71
2018-08-03T08:14:02.278Z,34.82
2018-08-03T08:16:32.316Z,34.75
2018-08-03T08:19:02.620Z,34.10
2018-08-03T08:21:31.976Z,33.67
2018-08-03T08:24:01.223Z,35.16
2018-08-03T08:26:29.929Z,34.73
2018-08-03T08:28:58.856Z,34.18
2018-08-03T08:31:27.524Z,35.47
2018-08-03T08:33:56.730Z,35.48
2018-08-03T08:36:25.506Z,36.08
2018-08-03T08:38:54.441Z,36.06
2018-08-03T08:41:24.118Z,35.91
2018-08-03T08:43:54.212Z,36.16
2018-08-03T08:46:23.966Z,35.61
2018-08-03T08:48:55.674Z,36.01
2018-08-03T08:51:27.721Z,35.78
2018-08-03T08:53:56.479Z,36.10
2018-08-03T08:56:25.264Z,36.35
2018-08-03T08:58:54.092Z,36.55
2018-08-03T09:01:22.700Z,35.87
2018-08-03T09:03:51.141Z,36.38
2018-08-03T09:06:19.872Z,36.83
2018-08-03T09:08:49.405Z,36.61
2018-08-03T09:11:19.217Z,35.43
2018-08-03T09:13:50.242Z,36.27
2018-08-03T09:16:19.491Z,36.56
2018-08-03T09:18:48.677Z,36.66
2018-08-03T09:21:17.791Z,36.87
2018-08-03T09:23:49.061Z,36.98
2018-08-03T09:26:18.908Z,36.82
2018-08-03T09:28:47.451Z,37.15
2018-08-03T09:31:16.184Z,35.74
2018-08-03T09:33:44.753Z,36.29
2018-08-03T09:36:13.313Z,34.55
2018-08-03T09:38:42.364Z,35.76
2018-08-03T09:41:17.715Z,36.45
2018-08-03T09:43:47.103Z,36.62
2018-08-03T09:46:15.653Z,36.64
2018-08-03T09:48:44.386Z,34.81
2018-08-03T09:51:13.111Z,36.66
2018-08-03T09:53:42.959Z,36.92
2018-08-03T09:56:12.189Z,36.74
2018-08-03T09:58:41.813Z,37.24
2018-08-03T10:01:10.524Z,36.94
2018-08-03T10:03:41.531Z,37.47
2018-08-03T10:06:10.404Z,37.70
2018-08-03T10:08:39.526Z,37.99
2018-08-03T10:11:09.562Z,36.82
2018-08-03T10:13:38.319Z,35.83
2018-08-03T10:16:06.917Z,33.75
2018-08-03T10:18:35.791Z,36.05
2018-08-03T10:21:05.089Z,37.44
2018-08-03T10:23:35.373Z,35.35
2018-08-03T10:26:04.759Z,34.28
2018-08-03T10:28:34.091Z,34.05
2018-08-03T10:31:02.625Z,36.03
2018-08-03T10:33:31.385Z,36.64
2018-08-03T10:36:01.695Z,35.80
2018-08-03T10:38:31.237Z,34.88
2018-08-03T10:40:59.869Z,35.18
2018-08-03T10:43:28.493Z,36.92
2018-08-03T10:45:57.008Z,36.77
2018-08-03T10:48:25.761Z,37.93
2018-08-03T10:50:54.384Z,37.55
2018-08-03T10:53:23.158Z,38.29
2018-08-03T10:55:52.538Z,38.03
2018-08-03T10:58:21.912Z,35.36
2018-08-03T11:00:50.995Z,36.93
2018-08-03T11:03:19.880Z,36.78
2018-08-03T11:05:49.017Z,35.55
2018-08-03T11:08:18.572Z,37.68
2018-08-03T11:10:48.947Z,37.18
2018-08-03T11:13:18.088Z,38.35
2018-08-03T11:15:47.690Z,38.27
2018-08-03T11:18:16.894Z,38.10
2018-08-03T11:20:45.721Z,38.37
2018-08-03T11:23:14.504Z,38.80
2018-08-03T11:25:43.243Z,37.64
2018-08-03T11:28:12.484Z,38.74
2018-08-03T11:30:42.317Z,36.01
2018-08-03T11:33:11.450Z,38.23
2018-08-03T11:35:40.791Z,39.10
2018-08-03T11:38:09.828Z,38.64
2018-08-03T11:40:39.074Z,38.40
2018-08-03T11:43:08.088Z,37.98
2018-08-03T11:45:37.398Z,38.85
2018-08-03T11:48:07.113Z,38.58
2018-08-03T11:50:37.023Z,37.71
2018-08-03T11:53:06.195Z,36.88
2018-08-03T11:55:37.664Z,37.84
2018-08-03T11:58:06.696Z,37.68
2018-08-03T12:00:36.030Z,38.64
2018-08-03T12:03:05.713Z,38.32
2018-08-03T12:05:38.424Z,38.24
2018-08-03T12:08:08.356Z,39.74
2018-08-03T12:10:37.285Z,40.31
2018-08-03T12:13:06.546Z,38.83
2018-08-03T12:15:35.957Z,38.13
2018-08-03T12:18:05.245Z,35.67
2018-08-03T12:20:34.896Z,35.60
2018-08-03T12:23:04.047Z,36.50
2018-08-03T12:25:33.702Z,36.21
2018-08-03T12:28:03.757Z,36.11
2018-08-03T12:30:32.427Z,37.14
2018-08-03T12:33:01.399Z,36.81
2018-08-03T12:35:30.361Z,38.26
2018-08-03T12:37:59.620Z,38.35
2018-08-03T12:40:28.678Z,38.09
2018-08-03T12:42:57.321Z,37.15
2018-08-03T12:45:33.837Z,38.51
2018-08-03T12:47:55.145Z,37.42
2018-08-03T12:50:23.873Z,38.63
2018-08-03T12:52:52.408Z,36.04
2018-08-03T12:55:21.071Z,37.76
2018-08-03T12:57:50.529Z,37.73
2018-08-03T13:00:19.735Z,38.67
2018-08-03T13:02:48.419Z,38.44
2018-08-03T13:05:16.968Z,38.13
2018-08-03T13:07:47.525Z,38.97
2018-08-03T13:10:17.223Z,39.72
2018-08-03T13:12:46.377Z,38.64
2018-08-03T13:15:14.956Z,37.47
2018-08-03T13:17:44.474Z,36.05
2018-08-03T13:20:13.709Z,36.58
2018-08-03T13:22:42.378Z,35.89
2018-08-03T13:25:11.342Z,36.01
2018-08-03T13:27:40.768Z,36.55
2018-08-03T13:30:09.312Z,36.51
2018-08-03T13:32:39.068Z,36.68
2018-08-03T13:35:08.655Z,37.82
2018-08-03T13:37:37.364Z,36.95
2018-08-03T13:40:06.141Z,37.79
2018-08-03T13:42:34.714Z,37.58
2018-08-03T13:45:03.332Z,37.11
2018-08-03T13:47:32.743Z,37.34
2018-08-03T13:50:02.331Z,37.28
2018-08-03T13:52:31.132Z,37.39
2018-08-03T13:54:59.794Z,37.03
2018-08-03T13:57:28.957Z,38.21
2018-08-03T13:59:59.384Z,38.31
2018-08-03T14:02:29.067Z,37.55
2018-08-03T14:04:58.191Z,37.05
2018-08-03T14:07:27.810Z,37.20
2018-08-03T14:09:57.439Z,35.83
2018-08-03T14:12:26.555Z,34.83
2018-08-03T14:14:55.298Z,35.03
2018-08-03T14:17:23.861Z,34.70
2018-08-03T14:19:53.984Z,35.67
2018-08-03T14:22:22.674Z,35.76
2018-08-03T14:24:51.755Z,35.62
2018-08-03T14:27:20.682Z,35.43
2018-08-03T14:29:50.924Z,35.72
2018-08-03T14:32:20.638Z,35.58
2018-08-03T14:34:51.087Z,36.08
2018-08-03T14:37:19.735Z,35.56
2018-08-03T14:39:49.242Z,35.73
2018-08-03T14:42:17.947Z,35.59
2018-08-03T14:44:47.497Z,35.78
2018-08-03T14:47:16.144Z,35.75
2018-08-03T14:49:45.355Z,35.87
2018-08-03T14:52:13.900Z,35.88
2018-08-03T14:54:42.721Z,35.80
2018-08-03T14:57:11.470Z,35.70
2018-08-03T14:59:41.177Z,35.54
2018-08-03T15:02:10.433Z,35.30
2018-08-03T15:04:39.569Z,35.09
2018-08-03T15:07:08.505Z,34.91
2018-08-03T15:09:37.407Z,34.47
2018-08-03T15:12:06.619Z,34.55
2018-08-03T15:14:35.805Z,34.25
2018-08-03T15:17:05.196Z,34.76
2018-08-03T15:19:34.584Z,34.50
2018-08-03T15:22:03.590Z,34.58
2018-08-03T15:24:33.084Z,34.77
2018-08-03T15:27:02.952Z,34.90
2018-08-03T15:29:32.262Z,34.86
2018-08-03T15:32:04.923Z,34.78
2018-08-03T15:34:34.177Z,34.86
2018-08-03T15:37:03.390Z,34.82
2018-08-03T15:39:32.620Z,34.46
2018-08-03T15:42:01.714Z,34.55
2018-08-03T15:44:30.924Z,34.49
2018-08-03T15:47:00.749Z,34.47
2018-08-03T15:49:30.123Z,34.62
2018-08-03T15:51:59.405Z,34.56
2018-08-03T15:54:29.024Z,34.61
2018-08-03T15:56:57.716Z,34.37
2018-08-03T15:59:26.982Z,34.17
2018-08-03T16:01:58.674Z,34.19
2018-08-03T16:04:27.298Z,34.30
2018-08-03T16:06:56.455Z,34.34
2018-08-03T16:09:25.748Z,34.30
2018-08-03T16:11:55.052Z,34.09
2018-08-03T16:14:24.037Z,34.16
2018-08-03T16:16:53.309Z,33.89
2018-08-03T16:19:22.212Z,34.05
2018-08-03T16:21:51.531Z,34.07
2018-08-03T16:24:20.666Z,34.03
2018-08-03T16:26:49.831Z,34.24
2018-08-03T16:29:18.922Z,34.10
2018-08-03T16:31:48.174Z,34.03
2018-08-03T16:34:16.821Z,34.12
2018-08-03T16:36:45.844Z,34.21
2018-08-03T16:39:14.675Z,33.90
2018-08-03T16:41:43.690Z,34.03
2018-08-03T16:44:12.401Z,34.11
2018-08-03T16:46:41.161Z,34.00
2018-08-03T16:49:09.898Z,33.91
2018-08-03T16:51:38.520Z,34.08
2018-08-03T16:54:07.123Z,33.79
2018-08-03T16:56:36.504Z,33.97
2018-08-03T16:59:05.012Z,33.75
2018-08-03T17:01:35.665Z,33.78
2018-08-03T17:04:05.189Z,33.85
2018-08-03T17:06:34.127Z,33.82
2018-08-03T17:09:02.789Z,33.82
2018-08-03T17:11:31.464Z,33.75
2018-08-03T17:14:00.816Z,33.76
2018-08-03T17:16:30.555Z,33.70
2018-08-03T17:18:59.283Z,33.67
2018-08-03T17:21:28.640Z,33.66
2018-08-03T17:23:58.364Z,33.49
2018-08-03T17:26:28.666Z,33.55
2018-08-03T17:28:57.257Z,33.43
2018-08-03T17:31:27.437Z,33.50
2018-08-03T17:33:56.249Z,33.52
2018-08-03T17:36:25.085Z,33.41
2018-08-03T17:38:53.878Z,33.36
2018-08-03T17:41:23.188Z,33.20
2018-08-03T17:43:52.712Z,33.19
2018-08-03T17:46:21.937Z,33.09
2018-08-03T17:48:50.836Z,33.03
2018-08-03T17:51:20.136Z,32.87
2018-08-03T17:53:49.198Z,32.80
2018-08-03T17:56:17.912Z,32.58
2018-08-03T17:58:46.759Z,32.51
2018-08-03T18:01:16.066Z,32.29
2018-08-03T18:03:44.697Z,32.06
2018-08-03T18:06:13.834Z,31.89
2018-08-03T18:08:43.015Z,31.77
2018-08-03T18:11:11.543Z,31.15
2018-08-03T18:13:40.323Z,30.98
2018-08-03T18:16:09.616Z,30.83
2018-08-03T18:18:38.063Z,30.56
2018-08-03T18:21:07.298Z,30.26
2018-08-03T18:23:35.931Z,30.15
2018-08-03T18:26:04.991Z,30.00
2018-08-03T18:28:34.246Z,30.02
2018-08-03T18:31:03.158Z,29.76
2018-08-03T18:33:32.957Z,29.60
2018-08-03T18:36:02.105Z,29.64
2018-08-03T18:38:31.214Z,29.56
2018-08-03T18:41:00.253Z,29.38
2018-08-03T18:43:29.367Z,29.16
2018-08-03T18:45:58.057Z,28.98
2018-08-03T18:48:27.198Z,28.78
2018-08-03T18:50:56.032Z,28.73
2018-08-03T18:53:25.216Z,28.53
2018-08-03T18:55:54.384Z,28.40
2018-08-03T18:58:23.750Z,28.44
2018-08-03T19:00:52.855Z,28.33
2018-08-03T19:03:21.906Z,28.29
2018-08-03T19:05:51.277Z,28.13
2018-08-03T19:08:20.461Z,27.93
2018-08-03T19:10:49.721Z,27.92
2018-08-03T19:13:18.533Z,27.80
2018-08-03T19:15:47.395Z,27.88
2018-08-03T19:18:16.099Z,27.97
2018-08-03T19:20:44.863Z,27.59
2018-08-03T19:23:13.653Z,27.33
2018-08-03T19:25:43.862Z,27.24
2018-08-03T19:28:12.633Z,27.14
2018-08-03T19:30:42.280Z,27.02
2018-08-03T19:33:11.795Z,26.85
2018-08-03T19:35:41.012Z,26.70
2018-08-03T19:38:11.842Z,26.59
2018-08-03T19:40:43.404Z,26.56
2018-08-03T19:43:13.336Z,26.87
2018-08-03T19:45:42.424Z,26.67
2018-08-03T19:48:10.995Z,26.58
2018-08-03T19:50:39.607Z,26.31
2018-08-03T19:53:08.839Z,26.53
2018-08-03T19:55:37.861Z,26.22
2018-08-03T19:58:06.889Z,26.13
2018-08-03T20:00:36.037Z,26.05
2018-08-03T20:03:06.477Z,25.98
2018-08-03T20:05:35.887Z,25.86
2018-08-03T20:08:04.681Z,25.76
2018-08-03T20:10:33.430Z,25.72
2018-08-03T20:13:02.125Z,25.59
2018-08-03T20:15:30.812Z,25.49
2018-08-03T20:17:59.478Z,25.45
2018-08-03T20:20:28.677Z,25.23
2018-08-03T20:22:57.345Z,25.17
2018-08-03T20:25:27.617Z,25.12
2018-08-03T20:27:56.708Z,25.17
2018-08-03T20:30:25.745Z,25.01
2018-08-03T20:32:55.206Z,24.89
2018-08-03T20:35:23.900Z,24.77
2018-08-03T20:37:52.674Z,24.91
2018-08-03T20:40:21.337Z,24.99
2018-08-03T20:42:52.415Z,24.76
2018-08-03T20:45:21.644Z,24.67
2018-08-03T20:47:50.135Z,24.56
2018-08-03T20:50:19.059Z,24.62
2018-08-03T20:52:48.385Z,24.33
2018-08-03T20:55:17.595Z,24.16
2018-08-03T20:57:47.702Z,24.02
2018-08-03T21:00:16.352Z,24.00
2018-08-03T21:02:45.774Z,23.96
2018-08-03T21:05:14.588Z,24.01
2018-08-03T21:07:43.259Z,24.01
2018-08-03T21:10:12.784Z,23.95
2018-08-03T21:12:41.247Z,23.97
2018-08-03T21:15:10.526Z,23.74
2018-08-03T21:17:39.349Z,23.86
2018-08-03T21:20:08.692Z,23.89
2018-08-03T21:22:37.340Z,23.70
2018-08-03T21:25:06.793Z,23.70
2018-08-03T21:27:36.781Z,23.65
2018-08-03T21:30:07.866Z,23.61
2018-08-03T21:32:38.346Z,23.46
2018-08-03T21:35:08.979Z,23.37
2018-08-03T21:37:38.412Z,23.44
2018-08-03T21:40:07.659Z,23.22
2018-08-03T21:42:37.390Z,23.28
2018-08-03T21:45:06.453Z,23.17
2018-08-03T21:47:36.317Z,23.04
2018-08-03T21:50:06.335Z,23.30
2018-08-03T21:52:35.173Z,23.11
2018-08-03T21:55:04.512Z,22.89
2018-08-03T21:57:34.104Z,23.16
2018-08-03T22:00:03.227Z,22.97
2018-08-03T22:02:33.216Z,23.01
2018-08-03T22:05:02.583Z,23.01
2018-08-03T22:07:31.447Z,22.77
2018-08-03T22:10:00.285Z,22.83
2018-08-03T22:12:29.774Z,22.64
2018-08-03T22:14:58.795Z,22.59
2018-08-03T22:17:28.253Z,22.72
2018-08-03T22:20:02.329Z,22.60
2018-08-03T22:22:34.977Z,22.75
2018-08-03T22:25:05.413Z,22.75
2018-08-03T22:27:34.331Z,22.71
2018-08-03T22:30:04.703Z,22.69
2018-08-03T22:32:33.721Z,22.65
2018-08-03T22:35:02.904Z,22.64
2018-08-03T22:37:32.119Z,22.63
2018-08-03T22:40:02.054Z,22.55
2018-08-03T22:42:31.373Z,22.39
2018-08-03T22:45:01.178Z,22.23
2018-08-03T22:47:30.691Z,22.11
2018-08-03T22:49:59.551Z,22.19
2018-08-03T22:52:28.200Z,22.09
2018-08-03T22:54:57.096Z,21.89
2018-08-03T22:57:26.092Z,21.66
2018-08-03T22:59:55.681Z,21.58
2018-08-03T23:02:24.699Z,21.57
2018-08-03T23:04:53.396Z,21.48
2018-08-03T23:07:22.141Z,21.84
2018-08-03T23:09:50.875Z,21.93
2018-08-03T23:12:19.681Z,21.71
2018-08-03T23:14:48.456Z,21.71
2018-08-03T23:17:18.018Z,21.64
2018-08-03T23:19:47.091Z,21.62
2018-08-03T23:22:15.823Z,21.62
2018-08-03T23:24:44.501Z,21.66
2018-08-03T23:27:13.849Z,21.59
2018-08-03T23:29:43.309Z,21.60
2018-08-03T23:32:14.270Z,21.65
2018-08-03T23:34:43.428Z,21.68
2018-08-03T23:37:13.354Z,21.62
2018-08-03T23:39:42.275Z,21.43
2018-08-03T23:42:12.055Z,21.56
2018-08-03T23:44:41.435Z,21.26
2018-08-03T23:47:10.696Z,21.39
2018-08-03T23:49:40.184Z,21.43
2018-08-03T23:52:09.830Z,21.38
2018-08-03T23:54:39.171Z,21.33
2018-08-03T23:57:08.919Z,21.21
2018-08-03T23:59:38.345Z,21.22
